createdAt,value
2022-09-23T00:12:23.155Z,8.49
2022-09-23T00:27:25.179Z,8.20
2022-09-23T00:42:27.256Z,7.78
2022-09-23T00:57:30.850Z,7.27
2022-09-23T01:13:07.459Z,6.77
2022-09-23T01:28:44.828Z,6.35
2022-09-23T01:44:04.280Z,5.95
2022-09-23T01:59:14.557Z,5.60
2022-09-23T02:14:27.001Z,5.24
2022-09-23T02:29:36.566Z,4.80
2022-09-23T02:44:39.229Z,4.49
2022-09-23T02:59:42.146Z,4.30
2022-09-23T03:15:02.317Z,3.90
2022-09-23T03:30:07.128Z,3.64
2022-09-23T03:45:17.331Z,3.76
2022-09-23T04:00:19.369Z,3.91
2022-09-23T04:15:22.119Z,4.15
2022-09-23T04:30:24.157Z,4.36
2022-09-23T04:45:26.438Z,4.60
2022-09-23T05:00:28.924Z,5.09
2022-09-23T05:15:30.895Z,5.09
2022-09-23T05:30:32.765Z,5.67
2022-09-23T05:45:36.527Z,6.39
2022-09-23T06:00:43.430Z,7.00
2022-09-23T06:15:45.404Z,7.42
2022-09-23T06:30:49.668Z,7.86
2022-09-23T06:45:55.993Z,8.32
2022-09-23T07:01:14.326Z,8.81
2022-09-23T07:16:16.416Z,9.38
2022-09-23T07:31:33.118Z,9.42
2022-09-23T07:46:39.000Z,9.69
2022-09-23T08:01:44.436Z,10.25
2022-09-23T08:16:47.920Z,10.81
2022-09-23T08:31:50.416Z,11.61
2022-09-23T08:47:16.199Z,12.30
2022-09-23T09:02:23.130Z,13.23
2022-09-23T09:17:37.113Z,13.57
2022-09-23T09:32:47.523Z,13.63
2022-09-23T09:48:03.219Z,14.25
2022-09-23T10:03:13.939Z,14.32
2022-09-23T10:18:22.833Z,14.33
2022-09-23T10:33:28.248Z,13.94
2022-09-23T10:48:55.167Z,14.33
2022-09-23T11:04:13.999Z,14.22
2022-09-23T11:19:40.118Z,14.18
2022-09-23T11:35:12.110Z,14.63
2022-09-23T11:50:29.806Z,15.52
2022-09-23T12:05:56.831Z,15.14
2022-09-23T12:21:49.055Z,14.76
2022-09-23T12:36:49.788Z,14.85
2022-09-23T12:52:13.716Z,15.08
2022-09-23T13:07:19.525Z,15.08
2022-09-23T13:23:00.160Z,14.79
2022-09-23T13:38:26.439Z,15.04
2022-09-23T13:53:32.649Z,15.02
2022-09-23T14:08:34.743Z,14.97
2022-09-23T14:23:44.935Z,14.76
2022-09-23T14:38:52.905Z,14.84
2022-09-23T14:53:54.925Z,14.67
2022-09-23T15:08:57.019Z,14.61
2022-09-23T15:23:59.082Z,14.63
2022-09-23T15:39:03.529Z,14.43
2022-09-23T15:54:14.674Z,14.25
2022-09-23T16:09:16.752Z,13.98
2022-09-23T16:24:19.433Z,13.65
2022-09-23T16:39:23.135Z,13.40
2022-09-23T16:54:25.156Z,13.09
2022-09-23T17:09:28.936Z,13.13
2022-09-23T17:24:30.935Z,13.05
2022-09-23T17:39:32.996Z,12.88
2022-09-23T17:54:36.676Z,12.65
2022-09-23T18:09:38.676Z,12.26
2022-09-23T18:24:42.614Z,11.54
2022-09-23T18:39:46.076Z,10.95
2022-09-23T18:54:51.776Z,10.61
2022-09-23T19:09:56.315Z,10.20
2022-09-23T19:24:58.353Z,9.86
2022-09-23T19:40:00.335Z,9.76
2022-09-23T19:55:02.428Z,9.51
2022-09-23T20:10:04.497Z,9.14
2022-09-23T20:25:13.196Z,8.69
2022-09-23T20:40:15.206Z,8.13
2022-09-23T20:55:18.415Z,7.70
2022-09-23T21:10:22.975Z,7.32
2022-09-23T21:25:29.902Z,7.41
2022-09-23T21:40:50.893Z,7.41
2022-09-23T21:55:53.597Z,7.08
2022-09-23T22:10:56.352Z,6.89
2022-09-23T22:26:02.935Z,6.94
2022-09-23T22:41:05.433Z,6.83
2022-09-23T22:56:07.520Z,6.60
2022-09-23T23:11:10.454Z,6.38
2022-09-23T23:26:20.175Z,6.07
2022-09-23T23:41:23.234Z,5.76
2022-09-23T23:56:26.261Z,5.50
